Pagrindinis puslapis
METAR-TAF:

METAR-TAF

Oro uostai :

Puerto Barijosas, Gvatemala

platuma: 15-43N, ilguma: 088-36W, Aukštis: 1 m

Dabartinis oras

Ataskaita buvo paskelbta 1 valandą ir 25 minutes, ne 04:00 UTC
Ramus vėjas
Temperatūra 26°C
Drėgmė 94%
Slėgis 1014 hPa
Matomumas 10 km arba daugiau
Išsisklaidę debesys ne aukštis 1700 ft

METAR: MGPB 250400Z 00000KT 9999 SCT017 26/25 Q1014 A2994

Laikas: 23:25 (05:25 UTC)

Prognozė

Ataskaita buvo paskelbta 6 valandos ir 25 minutes, ne 23:00 UTC
Prognozė galioja nuo 25 metu 00 UTC su 25 metu 24 UTC
Vėjas kt iš Šiaurės
Matomumas 10 km arba daugiau
Išsisklaidę debesys ne aukštis 1800 ft
Tapsmas
nuo 25 metu 14 UTC su 25 metu 16 UTC
Vėjas 8 kt iš Šiaurės Rytų
Mažai debesys ne aukštis 1800 ft
Tapsmas
nuo 25 metu 20 UTC su 25 metu 22 UTC
Išsisklaidę debesys ne aukštis 2200 ft

TAF: MGPB 242300Z 2500/2524 00000KT 9999 SCT018 TX34/2520Z TN22/2512Z BECMG 2514/2516 05008KT FEW018 BECMG 2520/2522 SCT022

Orai ataskaitas ir orų prognozės (METAR, TAF).

turimą stotys yra geltonos ir raudonos taškus žemėlapyje.

Perkelti pele per norėdami pamatyti stoties vardą.

Tada spustelėkite, norėdami matyti oro stebėjimo ir prognozės.

Norėdami pakeisti žemėlapį: spustelėkite ant žalios mygtukų su juodo kryžiaus žemyn,; žalią mygtuką su brūkšneliu, jei norite nutolinti; arba žalių rodyklių gretimoms žemėlapius.


METAR-TAF: